Fairmont, MN

8:16 AM CDT on October 20, 2017 (GMT -0500)
Fairmont Municipal

Weather History for KFRM - December, 2013

Change the Weather History Date:

Wednesday, December 4, 2013

  Actual Average Record
Temperature  
Mean Temperature 22 °F -  
Max Temperature 33 °F 30 °F 55 °F (1998)
Min Temperature 10 °F 14 °F -9 °F (1991)
Degree Days  
Heating Degree Days 42    
Moisture  
Dew Point 25 °F    
Average Humidity 88    
Maximum Humidity 93    
Minimum Humidity 67    
Precipitation  
Precipitation 0.01 in - - ()
Sea Level Pressure  
Sea Level Pressure 29.62 in    
Wind  
Wind Speed 11 mph (NNW)    
Max Wind Speed 30 mph    
Max Gust Speed 37 mph    
Visibility 5 miles    
Events      
Averages and records for this station are not official NWS values.
T = Trace of Precipitation, MM = Missing Value Source: NWS Daily Summary

Daily Weather History Graph

Daily Weather History Graph

Search for Another Location

Airport or City:

Trip Planner

Search our weather history database for the weather conditions in past years. The results will help you decide how hot, cold, wet, or windy it might be!

Date:

Astronomy

Dec. 04, 2013 Rise Set
Actual Time 7:34 AM CST 4:41 PM CST
Civil Twilight 7:02 AM CST 5:13 PM CST
Nautical Twilight 6:26 AM CST 5:49 PM CST
Astronomical Twilight 5:51 AM CST 6:24 PM CST
Moon 9:02 AM CST (12/4) 6:54 PM CST (12/4)
Length of Visible Light 10h 11m
Length of Day
9h 06m
Waxing Crescent, 4% of the Moon is Illuminated
Dec 4
Waxing Crescent
Dec 9
First Quarter
Dec 17
Full
Dec 25
Last Quarter
Jan 1
New

Hourly Weather History & Observations

Time (CST) Temp. Windchill Dew Point Humidity Pressure Visibility Wind Dir Wind Speed Gust Speed Precip Events Conditions
12:15 AM 33.8 °F 27.0 °F 30.2 °F 87% 29.68 in 0.5 mi NNE 8.1 mph - 0.01 in   Overcast
12:35 AM 33.8 °F 26.4 °F 30.2 °F 87% 29.66 in 0.8 mi ENE 9.2 mph - 0.01 in   Overcast
12:55 AM 33.8 °F 26.4 °F 30.2 °F 87% 29.65 in 0.8 mi NE 9.2 mph - 0.01 in   Overcast
1:15 AM 33.8 °F 28.6 °F 30.2 °F 87% 29.68 in 0.8 mi NE 5.8 mph - N/A   Overcast
1:35 AM 33.8 °F 27.0 °F 30.2 °F 87% 29.68 in 0.8 mi NE 8.1 mph - N/A   Overcast
1:55 AM 33.8 °F 27.0 °F 30.2 °F 87% 29.68 in 0.8 mi NE 8.1 mph - N/A   Overcast
2:15 AM 33.8 °F 27.7 °F 30.2 °F 87% 29.68 in 0.8 mi NNE 6.9 mph - N/A   Overcast
2:35 AM 33.8 °F 27.0 °F 30.2 °F 87% 29.68 in 0.5 mi NE 8.1 mph - N/A   Overcast
2:55 AM 33.8 °F 27.0 °F 30.2 °F 87% 29.66 in 0.5 mi NE 8.1 mph - N/A   Overcast
3:15 AM 32.0 °F 24.8 °F 30.2 °F 93% 29.67 in 0.5 mi NNE 8.1 mph - N/A   Overcast
3:35 AM 32.0 °F 23.6 °F 30.2 °F 93% 29.65 in 0.8 mi NE 10.4 mph - N/A   Overcast
3:55 AM 32.0 °F 24.8 °F 30.2 °F 93% 29.65 in 0.8 mi ENE 8.1 mph - N/A   Overcast
4:15 AM 32.0 °F 24.2 °F 30.2 °F 93% 29.64 in 0.8 mi NE 9.2 mph - N/A   Overcast
4:35 AM 32.0 °F 24.2 °F 30.2 °F 93% 29.63 in 1.0 mi NE 9.2 mph - N/A   Overcast
4:55 AM 32.0 °F 24.8 °F 30.2 °F 93% 29.63 in 1.0 mi NE 8.1 mph - N/A   Overcast
5:15 AM 32.0 °F 24.2 °F 30.2 °F 93% 29.62 in 1.5 mi ENE 9.2 mph - N/A   Overcast
5:35 AM 32.0 °F 24.8 °F 30.2 °F 93% 29.61 in 1.8 mi NE 8.1 mph - N/A   Overcast
5:55 AM 32.0 °F 23.6 °F 30.2 °F 93% 29.60 in 1.8 mi NE 10.4 mph - N/A   Overcast
6:15 AM 32.0 °F 24.8 °F 30.2 °F 93% 29.60 in 1.8 mi NNE 8.1 mph - N/A   Overcast
6:35 AM 32.0 °F 27.5 °F 30.2 °F 93% 29.62 in 2.0 mi North 4.6 mph - N/A   Overcast
6:55 AM 32.0 °F 26.4 °F 30.2 °F 93% 29.62 in 2.0 mi North 5.8 mph - N/A   Overcast
7:15 AM 32.0 °F 26.4 °F 30.2 °F 93% 29.63 in 2.5 mi NNE 5.8 mph - N/A   Overcast
7:35 AM 32.0 °F 26.4 °F 30.2 °F 93% 29.62 in 2.5 mi NNE 5.8 mph - N/A   Overcast
7:55 AM 32.0 °F 26.4 °F 30.2 °F 93% 29.61 in 1.8 mi NNE 5.8 mph - N/A   Overcast
8:15 AM 32.0 °F 24.8 °F 30.2 °F 93% 29.59 in 1.8 mi NE 8.1 mph - N/A   Overcast
8:35 AM 32.0 °F 25.6 °F 30.2 °F 93% 29.58 in 2.5 mi NE 6.9 mph - N/A   Overcast
8:55 AM 32.0 °F 24.8 °F 30.2 °F 93% 29.56 in 1.5 mi NNE 8.1 mph - N/A   Overcast
9:15 AM 32.0 °F 25.6 °F 30.2 °F 93% 29.55 in 1.8 mi NE 6.9 mph - N/A   Overcast
9:35 AM 32.0 °F 27.5 °F 30.2 °F 93% 29.56 in 1.5 mi NNE 4.6 mph - N/A   Overcast
9:55 AM 32.0 °F 27.5 °F 30.2 °F 93% 29.56 in 1.5 mi NNE 4.6 mph - N/A   Overcast
10:15 AM 32.0 °F 27.5 °F 30.2 °F 93% 29.56 in 1.5 mi North 4.6 mph - N/A   Overcast
10:35 AM 32.0 °F 25.6 °F 30.2 °F 93% 29.57 in 1.2 mi NW 6.9 mph - N/A   Overcast
10:55 AM 32.0 °F 25.6 °F 30.2 °F 93% 29.55 in 1.2 mi NNW 6.9 mph - N/A   Overcast
11:15 AM 32.0 °F 25.6 °F 30.2 °F 93% 29.54 in 1.2 mi NNW 6.9 mph - N/A   Overcast
11:35 AM 32.0 °F 24.8 °F 30.2 °F 93% 29.54 in 1.8 mi NW 8.1 mph - N/A   Overcast
11:55 AM 30.2 °F 22.6 °F 28.4 °F 93% 29.52 in 2.0 mi NW 8.1 mph - N/A   Overcast
12:15 PM 30.2 °F 21.9 °F 28.4 °F 93% 29.51 in 10.0 mi NNW 9.2 mph - N/A   Overcast
12:35 PM 30.2 °F 20.8 °F 28.4 °F 93% 29.50 in 10.0 mi NNW 11.5 mph - N/A   Overcast
12:55 PM 30.2 °F 21.3 °F 28.4 °F 93% 29.50 in 10.0 mi NNW 10.4 mph - N/A   Overcast
1:15 PM 30.2 °F 20.8 °F 28.4 °F 93% 29.50 in 8.0 mi NW 11.5 mph - N/A   Overcast
1:35 PM 30.2 °F 20.8 °F 28.4 °F 93% 29.50 in 5.0 mi NW 11.5 mph - N/A   Overcast
1:55 PM 30.2 °F 20.2 °F 26.6 °F 86% 29.51 in 3.0 mi NW 12.7 mph - N/A   Overcast
2:15 PM 28.4 °F 18.0 °F 26.6 °F 93% 29.51 in 4.0 mi NW 12.7 mph - N/A   Overcast
2:35 PM 28.4 °F 17.0 °F 26.6 °F 93% 29.53 in 8.0 mi NW 15.0 mph - N/A   Overcast
2:55 PM 28.4 °F 17.5 °F 24.8 °F 86% 29.52 in 10.0 mi NW 13.8 mph - N/A   Overcast
3:15 PM 28.4 °F 17.0 °F 26.6 °F 93% 29.53 in 10.0 mi WNW 15.0 mph 21.9 mph N/A   Overcast
3:35 PM 28.4 °F 17.0 °F 24.8 °F 86% 29.54 in 10.0 mi WNW 15.0 mph - N/A   Overcast
3:55 PM 28.4 °F 17.0 °F 24.8 °F 86% 29.55 in 10.0 mi NW 15.0 mph 21.9 mph N/A   Overcast
4:15 PM 28.4 °F 17.5 °F 24.8 °F 86% 29.56 in 10.0 mi WNW 13.8 mph - N/A   Overcast
4:35 PM 28.4 °F 16.6 °F 24.8 °F 86% 29.58 in 10.0 mi WNW 16.1 mph - N/A   Overcast
4:55 PM 28.4 °F 15.8 °F 24.8 °F 86% 29.58 in 10.0 mi WNW 18.4 mph 24.2 mph N/A   Overcast
5:15 PM 28.4 °F 15.1 °F 24.8 °F 86% 29.58 in 10.0 mi WNW 20.7 mph 24.2 mph N/A   Overcast
5:35 PM 28.4 °F 14.1 °F 23.0 °F 80% 29.60 in 10.0 mi WNW 24.2 mph 27.6 mph N/A   Overcast
5:55 PM 26.6 °F 13.8 °F 21.2 °F 80% 29.61 in 10.0 mi NW 17.3 mph 25.3 mph N/A   Overcast
6:15 PM 24.8 °F 11.5 °F 21.2 °F 86% 29.61 in 10.0 mi WNW 17.3 mph 24.2 mph N/A   Overcast
6:35 PM - - - N/A% 29.63 in 10.0 mi NW 27.6 mph 32.2 mph N/A   Overcast
6:55 PM 23.0 °F 6.3 °F 17.6 °F 80% 29.66 in 10.0 mi WNW 26.5 mph 31.1 mph N/A   Overcast
7:15 PM 21.2 °F 5.2 °F 17.6 °F 86% 29.67 in 10.0 mi WNW 21.9 mph 26.5 mph N/A   Overcast
7:35 PM 21.2 °F 4.2 °F 15.8 °F 80% 29.67 in 10.0 mi WNW 25.3 mph 29.9 mph N/A   Overcast
7:55 PM 19.4 °F 3.2 °F 12.2 °F 74% 29.67 in 10.0 mi NW 20.7 mph 33.4 mph N/A   Mostly Cloudy
8:15 PM 19.4 °F 4.1 °F 12.2 °F 74% 29.67 in 10.0 mi NW 18.4 mph 25.3 mph N/A   Partly Cloudy
8:35 PM 19.4 °F 3.2 °F 14.0 °F 80% 29.68 in 10.0 mi WNW 20.7 mph 24.2 mph N/A   Mostly Cloudy
8:55 PM - - - N/A% 29.69 in 10.0 mi WNW 26.5 mph 31.1 mph N/A   Overcast
9:15 PM 17.6 °F 1.3 °F 8.6 °F 68% 29.71 in 10.0 mi NW 19.6 mph 27.6 mph N/A   Mostly Cloudy
9:35 PM - - - N/A% 29.70 in 10.0 mi WNW 29.9 mph 34.5 mph N/A   Scattered Clouds
9:55 PM 15.8 °F -2.7 °F 8.6 °F 73% 29.74 in 10.0 mi WNW 24.2 mph 31.1 mph N/A   Mostly Cloudy
10:15 PM 14.0 °F -3.0 °F 6.8 °F 73% 29.76 in 10.0 mi WNW 18.4 mph 32.2 mph N/A   Mostly Cloudy
10:35 PM - - - N/A% 29.77 in 10.0 mi WNW 24.2 mph 36.8 mph N/A   Mostly Cloudy
10:55 PM 12.2 °F -6.7 °F 6.8 °F 79% 29.79 in 10.0 mi WNW 21.9 mph 32.2 mph N/A   Mostly Cloudy
11:15 PM 12.2 °F -7.1 °F 5.0 °F 73% 29.82 in 10.0 mi WNW 23.0 mph - N/A   Mostly Cloudy
11:35 PM 12.2 °F -7.1 °F 3.2 °F 67% 29.82 in 10.0 mi WNW 23.0 mph 26.5 mph N/A   Mostly Cloudy
11:55 PM 10.4 °F -7.7 °F 3.2 °F 73% 29.83 in 10.0 mi WNW 18.4 mph 26.5 mph N/A   Partly Cloudy